createdAt,value
2022-11-30T00:00:37.581Z,99506.55
2022-11-30T00:03:23.104Z,99506.50
2022-11-30T00:05:54.980Z,99504.64
2022-11-30T00:08:29.247Z,99509.38
2022-11-30T00:11:00.825Z,99505.46
2022-11-30T00:13:32.301Z,99501.01
2022-11-30T00:16:04.907Z,99501.06
2022-11-30T00:18:36.632Z,99498.67
2022-11-30T00:21:11.718Z,99502.30
2022-11-30T00:23:45.517Z,99504.20
2022-11-30T00:26:19.696Z,99500.53
2022-11-30T00:28:51.455Z,99499.21
2022-11-30T00:31:24.476Z,99497.14
2022-11-30T00:33:56.025Z,99502.05
2022-11-30T00:36:27.512Z,99507.14
2022-11-30T00:38:58.971Z,99506.09
2022-11-30T00:41:30.634Z,99507.12
2022-11-30T00:44:02.177Z,99512.49
2022-11-30T00:46:33.752Z,99514.73
2022-11-30T00:49:05.429Z,99514.85
2022-11-30T00:51:38.956Z,99517.62
2022-11-30T00:54:08.941Z,99520.17
2022-11-30T00:56:40.433Z,99525.66
2022-11-30T00:59:12.016Z,99523.18
2022-11-30T01:01:43.558Z,99520.05
2022-11-30T01:04:15.204Z,99520.42
2022-11-30T01:06:46.793Z,99521.16
2022-11-30T01:09:18.303Z,99516.27
2022-11-30T01:11:49.889Z,99519.42
2022-11-30T01:14:21.424Z,99516.74
2022-11-30T01:16:56.243Z,99519.75
2022-11-30T01:19:28.373Z,99515.76
2022-11-30T01:21:59.847Z,99520.38
2022-11-30T01:24:31.303Z,99518.18
2022-11-30T01:27:02.878Z,99518.64
2022-11-30T01:29:34.404Z,99517.43
2022-11-30T01:32:06.742Z,99511.70
2022-11-30T01:34:38.382Z,99513.02
2022-11-30T01:37:09.897Z,99508.90
2022-11-30T01:39:41.514Z,99509.31
2022-11-30T01:42:18.713Z,99510.59
2022-11-30T01:44:55.989Z,99513.94
2022-11-30T01:47:34.434Z,99515.95
2022-11-30T01:50:10.551Z,99515.58
2022-11-30T01:52:44.483Z,99519.66
2022-11-30T01:55:21.362Z,99516.98
2022-11-30T01:57:56.147Z,99518.65
2022-11-30T02:00:29.132Z,99522.11
2022-11-30T02:03:05.955Z,99522.70
2022-11-30T02:05:39.964Z,99521.70
2022-11-30T02:08:13.170Z,99521.95
2022-11-30T02:10:51.234Z,99520.25
2022-11-30T02:13:39.512Z,99518.86
2022-11-30T02:16:20.349Z,99521.60
2022-11-30T02:19:05.785Z,99523.91
2022-11-30T02:21:45.858Z,99526.43
2022-11-30T02:24:38.763Z,99526.09
2022-11-30T02:27:28.157Z,99524.61
2022-11-30T02:30:05.263Z,99524.73
2022-11-30T02:32:43.296Z,99527.08
2022-11-30T02:35:18.652Z,99525.57
2022-11-30T02:37:52.840Z,99524.57
2022-11-30T02:40:25.141Z,99523.63
2022-11-30T02:43:00.177Z,99523.75
2022-11-30T02:45:39.517Z,99526.48
2022-11-30T02:48:13.377Z,99528.04
2022-11-30T02:50:48.427Z,99534.23
2022-11-30T02:53:20.246Z,99537.20
2022-11-30T09:11:45.041Z,99652.08
2022-11-30T09:14:16.629Z,99652.23
2022-11-30T09:16:48.254Z,99654.42
2022-11-30T09:19:19.995Z,99650.45
2022-11-30T09:21:52.613Z,99648.66
2022-11-30T09:24:24.446Z,99658.59
2022-11-30T09:26:58.776Z,99655.02
2022-11-30T09:29:30.632Z,99654.23
2022-11-30T09:32:02.150Z,99652.42
2022-11-30T09:34:33.641Z,99650.61
2022-11-30T09:37:05.308Z,99651.55
2022-11-30T09:39:36.866Z,99644.17
2022-11-30T09:42:34.228Z,99644.35
2022-11-30T09:45:12.614Z,99647.44
2022-11-30T09:48:12.605Z,99647.69
2022-11-30T09:50:47.253Z,99647.73
2022-11-30T09:53:29.466Z,99649.54
2022-11-30T09:56:04.159Z,99649.20
2022-11-30T09:58:46.902Z,99653.54
2022-11-30T10:01:22.145Z,99653.88
2022-11-30T10:03:54.481Z,99657.77
2022-11-30T10:06:33.411Z,99656.58
2022-11-30T10:09:29.005Z,99656.17
2022-11-30T10:12:05.510Z,99658.11
2022-11-30T10:14:59.824Z,99655.00
2022-11-30T10:17:40.851Z,99647.86
2022-11-30T10:20:41.978Z,99645.09
2022-11-30T10:23:24.589Z,99642.83
2022-11-30T10:25:59.090Z,99644.90
2022-11-30T10:28:48.016Z,99645.80
2022-11-30T10:31:26.569Z,99647.84
2022-11-30T10:34:04.550Z,99646.77
2022-11-30T10:36:42.855Z,99644.24
2022-11-30T10:39:21.628Z,99635.57
2022-11-30T10:41:58.126Z,99639.40
2022-11-30T10:44:32.635Z,99637.14
2022-11-30T10:47:08.085Z,99640.20
2022-11-30T10:49:42.663Z,99641.07
2022-11-30T10:52:19.781Z,99643.67
2022-11-30T10:54:56.846Z,99641.92
2022-11-30T10:57:34.095Z,99643.55
2022-11-30T11:00:13.778Z,99643.13
2022-11-30T11:02:47.908Z,99646.02
2022-11-30T11:05:22.704Z,99644.99
2022-11-30T11:08:06.842Z,99644.86
2022-11-30T11:10:44.954Z,99641.80
2022-11-30T11:13:22.358Z,99647.88
2022-11-30T11:16:02.349Z,99641.65
2022-11-30T11:18:35.251Z,99642.42
2022-11-30T11:21:17.528Z,99640.86
2022-11-30T11:23:51.187Z,99637.38
2022-11-30T11:26:24.749Z,99636.15
2022-11-30T11:28:56.030Z,99634.13
2022-11-30T11:31:37.862Z,99628.72
2022-11-30T11:34:26.951Z,99634.09
2022-11-30T11:37:14.693Z,99632.66
2022-11-30T11:39:56.213Z,99634.45
2022-11-30T11:42:30.812Z,99630.54
2022-11-30T11:45:04.038Z,99632.77
2022-11-30T11:47:41.335Z,99633.27
2022-11-30T11:53:51.594Z,99633.96
2022-11-30T11:56:28.404Z,99637.77
2022-11-30T11:59:03.659Z,99634.41
2022-11-30T12:01:47.954Z,99635.90
2022-11-30T12:04:38.680Z,99641.77
2022-11-30T12:07:20.474Z,99644.90
2022-11-30T12:10:50.549Z,99640.90
2022-11-30T12:13:18.958Z,99645.02
2022-11-30T12:16:02.182Z,99647.83
2022-11-30T12:18:43.794Z,99655.27
2022-11-30T12:21:17.604Z,99652.51
2022-11-30T12:24:03.749Z,99654.65
2022-11-30T12:26:42.011Z,99650.02
2022-11-30T12:29:26.327Z,99656.97
2022-11-30T12:32:14.333Z,99657.87
2022-11-30T12:34:57.100Z,99660.25
2022-11-30T12:37:47.200Z,99657.60
2022-11-30T12:40:34.218Z,99653.56
2022-11-30T12:43:17.802Z,99656.25
2022-11-30T12:45:53.004Z,99653.65
2022-11-30T12:48:35.021Z,99652.06
2022-11-30T12:51:18.076Z,99651.24
2022-11-30T12:53:56.867Z,99654.58
2022-11-30T12:56:42.926Z,99651.79
2022-11-30T12:59:29.394Z,99651.63
2022-11-30T13:02:17.061Z,99652.09
2022-11-30T13:04:58.341Z,99652.50
2022-11-30T13:07:35.571Z,99651.85
2022-11-30T13:10:18.811Z,99646.92
2022-11-30T13:12:52.794Z,99643.25
2022-11-30T13:15:27.056Z,99642.39
2022-11-30T13:17:58.909Z,99640.31
2022-11-30T13:20:38.803Z,99637.65
2022-11-30T13:23:15.008Z,99639.27
2022-11-30T13:28:56.676Z,99640.38
2022-11-30T13:31:34.179Z,99637.85
2022-11-30T13:34:05.830Z,99637.48
2022-11-30T13:36:40.693Z,99638.38
2022-11-30T13:39:26.229Z,99635.77
2022-11-30T13:42:34.704Z,99634.66
2022-11-30T13:45:31.988Z,99636.98
2022-11-30T13:48:30.678Z,99634.33
2022-11-30T13:51:02.576Z,99642.42
2022-11-30T13:53:37.255Z,99644.33
2022-11-30T13:56:35.269Z,99643.95
2022-11-30T13:59:40.970Z,99645.23
2022-11-30T14:02:59.875Z,99647.05
2022-11-30T14:05:44.599Z,99647.67
2022-11-30T14:08:42.719Z,99648.20
2022-11-30T14:11:40.066Z,99650.25
2022-11-30T14:14:45.887Z,99654.79
2022-11-30T14:17:21.590Z,99656.92
2022-11-30T14:19:58.943Z,99654.77
2022-11-30T14:22:31.909Z,99656.14
2022-11-30T14:25:04.480Z,99656.69
2022-11-30T14:27:38.584Z,99655.48
2022-11-30T14:30:19.604Z,99653.59
2022-11-30T14:32:57.597Z,99652.20
2022-11-30T14:35:33.526Z,99650.09
2022-11-30T14:38:19.199Z,99651.08
2022-11-30T14:40:55.188Z,99650.13
2022-11-30T14:43:26.962Z,99648.06
2022-11-30T14:46:08.182Z,99648.80
2022-11-30T14:48:45.382Z,99644.47
2022-11-30T14:51:17.051Z,99644.98
2022-11-30T14:53:56.056Z,99641.48
2022-11-30T14:56:34.241Z,99646.02
2022-11-30T14:59:13.781Z,99642.85
2022-11-30T15:01:45.807Z,99648.24
2022-11-30T15:04:19.261Z,99642.27
2022-11-30T15:06:50.918Z,99644.36
2022-11-30T15:09:26.012Z,99645.77
2022-11-30T15:11:58.331Z,99647.80
2022-11-30T15:14:29.949Z,99644.48
2022-11-30T15:17:01.458Z,99649.96
2022-11-30T15:19:35.246Z,99653.11
2022-11-30T15:22:06.777Z,99656.59
2022-11-30T15:24:38.316Z,99658.73
2022-11-30T15:27:15.096Z,99661.79
2022-11-30T15:29:50.936Z,99663.56
2022-11-30T15:32:25.757Z,99661.95
2022-11-30T15:34:58.859Z,99660.02
2022-11-30T15:37:37.981Z,99664.45
2022-11-30T15:40:15.834Z,99665.75
2022-11-30T15:42:50.474Z,99668.19
2022-11-30T15:45:25.400Z,99677.84
2022-11-30T15:47:58.731Z,99680.49
2022-11-30T15:50:41.483Z,99679.01
2022-11-30T15:53:31.729Z,99678.80
2022-11-30T15:56:06.693Z,99684.42
2022-11-30T15:58:45.575Z,99689.29
2022-11-30T16:01:22.150Z,99690.29
2022-11-30T16:04:09.223Z,99695.61
2022-11-30T16:06:48.810Z,99695.16
2022-11-30T16:09:23.963Z,99699.21
2022-11-30T16:11:59.176Z,99700.00
2022-11-30T16:14:31.068Z,99699.92
2022-11-30T16:17:07.313Z,99698.33
2022-11-30T16:19:40.632Z,99703.09
2022-11-30T16:22:15.305Z,99706.99
2022-11-30T16:24:46.765Z,99710.48
2022-11-30T16:27:22.322Z,99709.34
2022-11-30T16:29:55.214Z,99715.02
2022-11-30T16:32:27.129Z,99713.10
2022-11-30T16:34:58.732Z,99715.84
2022-11-30T16:37:30.270Z,99715.59
2022-11-30T16:40:01.772Z,99712.83
2022-11-30T16:42:33.244Z,99709.38
2022-11-30T16:45:05.289Z,99712.05
2022-11-30T16:47:36.890Z,99710.80
2022-11-30T16:50:11.658Z,99710.61
2022-11-30T16:52:43.988Z,99711.88
2022-11-30T16:55:20.158Z,99709.19
2022-11-30T16:57:54.216Z,99712.58
2022-11-30T17:00:26.294Z,99715.73
2022-11-30T17:03:01.240Z,99719.04
2022-11-30T17:05:33.681Z,99724.77
2022-11-30T17:08:05.681Z,99726.10
2022-11-30T17:10:38.264Z,99721.65
2022-11-30T17:13:11.496Z,99719.39
2022-11-30T17:15:43.008Z,99727.10
2022-11-30T17:18:15.849Z,99731.52
2022-11-30T17:20:48.899Z,99727.83
2022-11-30T17:23:20.532Z,99724.20
2022-11-30T17:25:52.150Z,99724.49
2022-11-30T17:28:24.042Z,99718.46
2022-11-30T17:30:55.675Z,99724.22
2022-11-30T17:33:27.300Z,99725.17
2022-11-30T17:35:58.773Z,99722.55
2022-11-30T17:38:30.330Z,99720.80
2022-11-30T17:41:04.793Z,99720.46
2022-11-30T17:43:38.169Z,99719.52
2022-11-30T17:46:15.130Z,99716.98
2022-11-30T17:48:48.235Z,99717.61
2022-11-30T17:51:22.223Z,99717.40
2022-11-30T17:53:53.878Z,99717.43
2022-11-30T17:56:26.287Z,99716.95
2022-11-30T17:58:57.942Z,99717.55
2022-11-30T18:01:30.553Z,99718.51
2022-11-30T18:04:02.100Z,99716.89
2022-11-30T18:06:33.696Z,99714.19
2022-11-30T18:09:05.464Z,99718.22
2022-11-30T18:11:37.033Z,99716.91
2022-11-30T18:14:08.625Z,99719.92
2022-11-30T18:16:40.434Z,99716.76
2022-11-30T18:19:14.828Z,99715.96
2022-11-30T18:21:46.523Z,99715.86
2022-11-30T18:24:22.527Z,99713.49
2022-11-30T18:26:56.686Z,99713.73
2022-11-30T18:29:28.989Z,99717.61
2022-11-30T18:32:00.490Z,99721.63
2022-11-30T18:34:32.084Z,99722.37
2022-11-30T18:37:03.796Z,99727.08
2022-11-30T18:39:35.345Z,99731.83
2022-11-30T18:42:06.962Z,99732.70
2022-11-30T18:44:38.440Z,99731.13
2022-11-30T18:47:09.968Z,99729.66
2022-11-30T18:49:41.445Z,99732.30
2022-11-30T18:52:12.950Z,99727.80
2022-11-30T18:54:44.437Z,99728.20
2022-11-30T18:57:15.938Z,99730.81
2022-11-30T18:59:49.805Z,99728.80
2022-11-30T19:02:24.366Z,99729.27
2022-11-30T19:04:55.985Z,99729.72
2022-11-30T19:07:27.511Z,99729.84
2022-11-30T19:09:59.083Z,99727.39
2022-11-30T19:12:30.618Z,99735.19
2022-11-30T19:15:04.270Z,99735.60
2022-11-30T19:17:35.889Z,99734.98
2022-11-30T19:20:09.244Z,99737.02
2022-11-30T19:22:40.707Z,99734.75
2022-11-30T19:25:13.606Z,99740.61
2022-11-30T19:27:48.106Z,99737.52
2022-11-30T19:30:20.307Z,99736.70
2022-11-30T19:32:51.797Z,99738.54
2022-11-30T19:35:25.025Z,99739.67
2022-11-30T19:37:56.553Z,99741.13
2022-11-30T19:40:28.166Z,99738.77
2022-11-30T19:43:00.163Z,99737.02
2022-11-30T19:45:31.680Z,99739.64
2022-11-30T19:48:03.424Z,99739.72
2022-11-30T19:50:34.916Z,99736.52
2022-11-30T19:53:07.404Z,99737.65
2022-11-30T19:55:41.575Z,99738.53
2022-11-30T19:58:13.158Z,99739.07
2022-11-30T20:00:47.893Z,99738.54
2022-11-30T20:03:19.905Z,99734.50
2022-11-30T20:05:52.079Z,99736.98
2022-11-30T20:08:23.769Z,99735.89
2022-11-30T20:10:55.318Z,99734.95
2022-11-30T20:13:26.898Z,99732.21
2022-11-30T20:15:58.511Z,99731.35
2022-11-30T20:18:30.131Z,99726.68
2022-11-30T20:21:12.468Z,99727.67
2022-11-30T20:23:45.196Z,99729.82
2022-11-30T20:26:19.568Z,99730.56
2022-11-30T20:28:52.480Z,99730.61
2022-11-30T20:31:25.936Z,99732.27
2022-11-30T20:33:55.867Z,99734.58
2022-11-30T20:36:27.552Z,99733.09
2022-11-30T20:39:00.420Z,99733.38
2022-11-30T20:41:31.950Z,99738.58
2022-11-30T20:44:03.850Z,99736.69
2022-11-30T20:46:36.862Z,99738.50
2022-11-30T20:49:17.469Z,99738.14
2022-11-30T20:51:49.682Z,99739.53
2022-11-30T20:54:21.312Z,99735.90
2022-11-30T20:56:52.970Z,99738.92
2022-11-30T20:59:26.823Z,99735.69
2022-11-30T21:01:59.280Z,99736.23
2022-11-30T21:04:30.826Z,99733.84
2022-11-30T21:07:02.328Z,99730.81
2022-11-30T21:09:33.864Z,99731.59
2022-11-30T21:12:05.673Z,99734.50
2022-11-30T21:14:37.488Z,99730.03
2022-11-30T21:17:09.102Z,99731.89
2022-11-30T21:19:40.622Z,99730.27
2022-11-30T21:22:12.249Z,99733.17
2022-11-30T21:24:43.808Z,99733.41
2022-11-30T21:27:15.409Z,99735.19
2022-11-30T21:29:46.898Z,99735.27
2022-11-30T21:32:19.468Z,99725.85
2022-11-30T21:34:50.993Z,99733.95
2022-11-30T21:37:22.716Z,99726.43
2022-11-30T21:39:54.450Z,99729.41
2022-11-30T21:42:26.020Z,99729.77
2022-11-30T21:44:57.534Z,99732.06
2022-11-30T21:47:33.040Z,99734.04
2022-11-30T21:50:05.017Z,99733.83
2022-11-30T21:52:36.653Z,99735.52
2022-11-30T21:55:10.052Z,99730.56
2022-11-30T21:57:41.544Z,99735.66
2022-11-30T22:00:14.943Z,99731.81
2022-11-30T22:02:48.568Z,99733.00
2022-11-30T22:05:20.283Z,99728.83
2022-11-30T22:07:53.672Z,99729.77
2022-11-30T22:10:23.701Z,99728.09
2022-11-30T22:12:55.296Z,99727.59
2022-11-30T22:15:26.805Z,99727.34
2022-11-30T22:17:58.319Z,99725.36
2022-11-30T22:20:29.796Z,99724.20
2022-11-30T22:23:01.350Z,99726.07
2022-11-30T22:25:32.852Z,99727.14
2022-11-30T22:28:04.737Z,99730.61
2022-11-30T22:30:37.084Z,99729.66
2022-11-30T22:33:08.797Z,99725.36
2022-11-30T22:35:40.260Z,99728.20
2022-11-30T22:38:13.400Z,99723.38
2022-11-30T22:40:44.894Z,99717.27
2022-11-30T22:43:16.380Z,99722.10
2022-11-30T22:45:47.876Z,99725.70
2022-11-30T22:48:19.396Z,99726.19
2022-11-30T22:50:50.979Z,99724.16
2022-11-30T22:53:22.639Z,99722.88
2022-11-30T22:55:54.376Z,99725.68
2022-11-30T22:58:26.017Z,99726.77
2022-11-30T23:00:57.710Z,99724.98
2022-11-30T23:03:30.170Z,99722.02
2022-11-30T23:06:01.872Z,99721.64
2022-11-30T23:08:33.785Z,99719.08
2022-11-30T23:11:07.928Z,99720.23
2022-11-30T23:13:41.920Z,99719.07
2022-11-30T23:16:15.522Z,99715.40
2022-11-30T23:18:49.511Z,99714.05
2022-11-30T23:21:22.653Z,99718.84
2022-11-30T23:23:55.846Z,99715.91
2022-11-30T23:26:29.036Z,99711.21
2022-11-30T23:29:04.619Z,99707.36
2022-11-30T23:31:38.387Z,99708.84
2022-11-30T23:34:13.212Z,99707.94
2022-11-30T23:36:45.085Z,99706.59
2022-11-30T23:39:19.074Z,99706.35
2022-11-30T23:41:50.955Z,99704.63
2022-11-30T23:44:22.681Z,99705.32
2022-11-30T23:46:54.267Z,99703.07
2022-11-30T23:49:25.847Z,99705.27
2022-11-30T23:51:58.389Z,99706.34
2022-11-30T23:54:29.868Z,99701.70
2022-11-30T23:57:01.353Z,99698.05
2022-11-30T23:59:32.865Z,99690.50
